sensor_id;sensor_type;location;lat;lon;timestamp;P1;durP1;ratioP1;P2;durP2;ratioP2
76228;SDS011;65021;53.174;18.160;2023-06-26T00:01:02;6.10;;;2.70;;
76228;SDS011;65021;53.174;18.160;2023-06-26T00:03:49;5.80;;;2.80;;
76228;SDS011;65021;53.174;18.160;2023-06-26T00:06:15;5.00;;;2.40;;
76228;SDS011;65021;53.174;18.160;2023-06-26T00:08:42;4.90;;;2.30;;
76228;SDS011;65021;53.174;18.160;2023-06-26T00:11:09;5.50;;;2.70;;
76228;SDS011;65021;53.174;18.160;2023-06-26T00:13:36;6.10;;;2.90;;
76228;SDS011;65021;53.174;18.160;2023-06-26T00:16:03;7.00;;;3.70;;
76228;SDS011;65021;53.174;18.160;2023-06-26T00:18:30;4.70;;;2.30;;
76228;SDS011;65021;53.174;18.160;2023-06-26T00:20:57;6.70;;;3.10;;
76228;SDS011;65021;53.174;18.160;2023-06-26T00:23:24;7.70;;;3.40;;
76228;SDS011;65021;53.174;18.160;2023-06-26T00:25:50;5.50;;;3.00;;
76228;SDS011;65021;53.174;18.160;2023-06-26T00:28:17;7.20;;;3.60;;
76228;SDS011;65021;53.174;18.160;2023-06-26T00:30:43;5.60;;;3.00;;
76228;SDS011;65021;53.174;18.160;2023-06-26T00:33:10;5.40;;;2.70;;
76228;SDS011;65021;53.174;18.160;2023-06-26T00:35:37;6.60;;;3.40;;
76228;SDS011;65021;53.174;18.160;2023-06-26T00:38:04;7.10;;;3.10;;
76228;SDS011;65021;53.174;18.160;2023-06-26T00:40:30;7.10;;;3.60;;
76228;SDS011;65021;53.174;18.160;2023-06-26T00:42:57;8.50;;;3.60;;
76228;SDS011;65021;53.174;18.160;2023-06-26T00:45:23;5.80;;;2.80;;
76228;SDS011;65021;53.174;18.160;2023-06-26T00:47:50;7.20;;;3.30;;
76228;SDS011;65021;53.174;18.160;2023-06-26T00:50:17;7.00;;;3.40;;
76228;SDS011;65021;53.174;18.160;2023-06-26T00:52:44;7.00;;;3.70;;
76228;SDS011;65021;53.174;18.160;2023-06-26T00:55:11;6.50;;;3.10;;
76228;SDS011;65021;53.174;18.160;2023-06-26T00:57:38;8.30;;;4.20;;
76228;SDS011;65021;53.174;18.160;2023-06-26T01:00:05;8.40;;;4.00;;
76228;SDS011;65021;53.174;18.160;2023-06-26T01:02:32;6.90;;;3.50;;
76228;SDS011;65021;53.174;18.160;2023-06-26T01:05:01;7.50;;;4.20;;
76228;SDS011;65021;53.174;18.160;2023-06-26T01:07:33;8.40;;;4.40;;
76228;SDS011;65021;53.174;18.160;2023-06-26T01:10:03;8.70;;;3.80;;
76228;SDS011;65021;53.174;18.160;2023-06-26T01:12:34;7.60;;;3.60;;
76228;SDS011;65021;53.174;18.160;2023-06-26T01:15:03;7.80;;;4.60;;
76228;SDS011;65021;53.174;18.160;2023-06-26T01:17:30;8.70;;;4.30;;
76228;SDS011;65021;53.174;18.160;2023-06-26T01:20:04;7.00;;;3.70;;
76228;SDS011;65021;53.174;18.160;2023-06-26T01:25:21;7.40;;;3.50;;
76228;SDS011;65021;53.174;18.160;2023-06-26T01:28:05;7.60;;;3.40;;
76228;SDS011;65021;53.174;18.160;2023-06-26T01:30:34;7.60;;;3.60;;
76228;SDS011;65021;53.174;18.160;2023-06-26T01:33:02;8.30;;;3.90;;
76228;SDS011;65021;53.174;18.160;2023-06-26T01:35:29;5.40;;;2.80;;
76228;SDS011;65021;53.174;18.160;2023-06-26T01:43:14;8.30;;;3.30;;
76228;SDS011;65021;53.174;18.160;2023-06-26T01:45:41;6.90;;;3.30;;
76228;SDS011;65021;53.174;18.160;2023-06-26T01:48:10;9.30;;;3.90;;
76228;SDS011;65021;53.174;18.160;2023-06-26T01:53:13;7.30;;;3.80;;
76228;SDS011;65021;53.174;18.160;2023-06-26T01:58:10;7.90;;;3.70;;
76228;SDS011;65021;53.174;18.160;2023-06-26T02:00:38;6.30;;;3.20;;
76228;SDS011;65021;53.174;18.160;2023-06-26T02:03:05;7.60;;;3.70;;
76228;SDS011;65021;53.174;18.160;2023-06-26T02:05:32;7.90;;;3.50;;
76228;SDS011;65021;53.174;18.160;2023-06-26T02:07:59;9.00;;;4.20;;
76228;SDS011;65021;53.174;18.160;2023-06-26T02:10:27;6.80;;;3.50;;
76228;SDS011;65021;53.174;18.160;2023-06-26T02:12:54;7.30;;;3.90;;
76228;SDS011;65021;53.174;18.160;2023-06-26T02:15:20;6.90;;;3.30;;
76228;SDS011;65021;53.174;18.160;2023-06-26T02:17:48;7.50;;;3.90;;
76228;SDS011;65021;53.174;18.160;2023-06-26T02:20:14;7.50;;;4.00;;
76228;SDS011;65021;53.174;18.160;2023-06-26T02:22:41;7.60;;;4.20;;
76228;SDS011;65021;53.174;18.160;2023-06-26T02:25:09;8.70;;;4.20;;
76228;SDS011;65021;53.174;18.160;2023-06-26T02:27:36;7.30;;;3.60;;
76228;SDS011;65021;53.174;18.160;2023-06-26T02:30:03;8.10;;;4.10;;
76228;SDS011;65021;53.174;18.160;2023-06-26T02:32:30;8.20;;;4.10;;
76228;SDS011;65021;53.174;18.160;2023-06-26T02:34:57;5.30;;;2.70;;
76228;SDS011;65021;53.174;18.160;2023-06-26T02:37:23;9.10;;;4.20;;
76228;SDS011;65021;53.174;18.160;2023-06-26T02:39:50;6.50;;;3.20;;
76228;SDS011;65021;53.174;18.160;2023-06-26T02:42:16;6.70;;;3.90;;
76228;SDS011;65021;53.174;18.160;2023-06-26T02:44:43;8.30;;;4.20;;
76228;SDS011;65021;53.174;18.160;2023-06-26T02:47:10;7.80;;;4.70;;
76228;SDS011;65021;53.174;18.160;2023-06-26T02:49:36;10.30;;;4.90;;
76228;SDS011;65021;53.174;18.160;2023-06-26T02:52:03;9.10;;;4.80;;
76228;SDS011;65021;53.174;18.160;2023-06-26T02:54:29;8.20;;;4.90;;
76228;SDS011;65021;53.174;18.160;2023-06-26T02:56:56;6.80;;;3.70;;
76228;SDS011;65021;53.174;18.160;2023-06-26T02:59:23;7.40;;;3.70;;
76228;SDS011;65021;53.174;18.160;2023-06-26T03:01:49;7.90;;;4.00;;
76228;SDS011;65021;53.174;18.160;2023-06-26T03:04:16;8.80;;;4.60;;
76228;SDS011;65021;53.174;18.160;2023-06-26T03:06:44;8.00;;;3.70;;
76228;SDS011;65021;53.174;18.160;2023-06-26T03:09:10;9.70;;;4.20;;
76228;SDS011;65021;53.174;18.160;2023-06-26T03:11:37;8.20;;;4.40;;
76228;SDS011;65021;53.174;18.160;2023-06-26T03:14:03;6.60;;;4.10;;
76228;SDS011;65021;53.174;18.160;2023-06-26T03:16:30;6.80;;;4.00;;
76228;SDS011;65021;53.174;18.160;2023-06-26T03:18:57;5.90;;;3.60;;
76228;SDS011;65021;53.174;18.160;2023-06-26T03:21:23;8.00;;;3.90;;
76228;SDS011;65021;53.174;18.160;2023-06-26T03:23:50;6.50;;;4.00;;
76228;SDS011;65021;53.174;18.160;2023-06-26T03:26:16;6.80;;;4.00;;
76228;SDS011;65021;53.174;18.160;2023-06-26T03:28:43;5.90;;;3.60;;
76228;SDS011;65021;53.174;18.160;2023-06-26T03:31:10;6.50;;;3.40;;
76228;SDS011;65021;53.174;18.160;2023-06-26T03:33:37;6.60;;;3.60;;
76228;SDS011;65021;53.174;18.160;2023-06-26T03:36:04;7.20;;;4.00;;
76228;SDS011;65021;53.174;18.160;2023-06-26T03:38:32;6.00;;;3.90;;
76228;SDS011;65021;53.174;18.160;2023-06-26T03:40:59;6.90;;;3.80;;
76228;SDS011;65021;53.174;18.160;2023-06-26T03:43:25;6.80;;;4.30;;
76228;SDS011;65021;53.174;18.160;2023-06-26T03:45:52;7.20;;;3.90;;
76228;SDS011;65021;53.174;18.160;2023-06-26T03:48:18;8.60;;;4.00;;
76228;SDS011;65021;53.174;18.160;2023-06-26T03:50:45;8.20;;;5.30;;
76228;SDS011;65021;53.174;18.160;2023-06-26T03:53:12;5.60;;;4.00;;
76228;SDS011;65021;53.174;18.160;2023-06-26T03:55:38;7.60;;;4.70;;
76228;SDS011;65021;53.174;18.160;2023-06-26T03:58:05;5.30;;;3.30;;
76228;SDS011;65021;53.174;18.160;2023-06-26T04:00:32;6.70;;;3.80;;
76228;SDS011;65021;53.174;18.160;2023-06-26T04:02:58;7.60;;;5.70;;
76228;SDS011;65021;53.174;18.160;2023-06-26T04:05:25;9.20;;;6.20;;
76228;SDS011;65021;53.174;18.160;2023-06-26T04:07:52;10.10;;;6.70;;
76228;SDS011;65021;53.174;18.160;2023-06-26T04:10:19;8.80;;;6.10;;
76228;SDS011;65021;53.174;18.160;2023-06-26T04:12:47;9.10;;;6.60;;
76228;SDS011;65021;53.174;18.160;2023-06-26T04:15:14;9.60;;;6.80;;
76228;SDS011;65021;53.174;18.160;2023-06-26T04:17:41;10.10;;;6.80;;
76228;SDS011;65021;53.174;18.160;2023-06-26T04:20:08;10.40;;;6.70;;
76228;SDS011;65021;53.174;18.160;2023-06-26T04:22:35;9.40;;;6.20;;
76228;SDS011;65021;53.174;18.160;2023-06-26T04:25:02;9.80;;;5.80;;
76228;SDS011;65021;53.174;18.160;2023-06-26T04:27:30;7.70;;;4.70;;
76228;SDS011;65021;53.174;18.160;2023-06-26T04:29:56;9.10;;;5.60;;
76228;SDS011;65021;53.174;18.160;2023-06-26T04:32:23;12.60;;;6.40;;
76228;SDS011;65021;53.174;18.160;2023-06-26T04:34:49;10.20;;;6.60;;
76228;SDS011;65021;53.174;18.160;2023-06-26T04:37:16;9.30;;;5.70;;
76228;SDS011;65021;53.174;18.160;2023-06-26T04:39:43;11.00;;;6.40;;
76228;SDS011;65021;53.174;18.160;2023-06-26T04:42:10;11.40;;;6.40;;
76228;SDS011;65021;53.174;18.160;2023-06-26T04:44:38;10.30;;;6.70;;
76228;SDS011;65021;53.174;18.160;2023-06-26T04:49:34;10.20;;;6.40;;
76228;SDS011;65021;53.174;18.160;2023-06-26T04:52:01;10.00;;;6.60;;
76228;SDS011;65021;53.174;18.160;2023-06-26T04:54:29;11.80;;;7.30;;
76228;SDS011;65021;53.174;18.160;2023-06-26T04:56:55;12.10;;;7.40;;
76228;SDS011;65021;53.174;18.160;2023-06-26T04:59:22;12.10;;;6.30;;
76228;SDS011;65021;53.174;18.160;2023-06-26T05:01:49;11.60;;;7.90;;
76228;SDS011;65021;53.174;18.160;2023-06-26T05:04:16;11.40;;;7.00;;
76228;SDS011;65021;53.174;18.160;2023-06-26T05:06:42;9.60;;;6.30;;
76228;SDS011;65021;53.174;18.160;2023-06-26T05:09:09;10.70;;;6.80;;
76228;SDS011;65021;53.174;18.160;2023-06-26T05:11:37;10.00;;;6.70;;
76228;SDS011;65021;53.174;18.160;2023-06-26T05:14:04;11.80;;;6.70;;
76228;SDS011;65021;53.174;18.160;2023-06-26T05:16:33;11.50;;;6.20;;
76228;SDS011;65021;53.174;18.160;2023-06-26T05:19:00;13.00;;;6.70;;
76228;SDS011;65021;53.174;18.160;2023-06-26T05:21:28;12.60;;;7.70;;
76228;SDS011;65021;53.174;18.160;2023-06-26T05:23:55;14.70;;;7.00;;
76228;SDS011;65021;53.174;18.160;2023-06-26T05:26:23;11.40;;;7.30;;
76228;SDS011;65021;53.174;18.160;2023-06-26T05:28:50;10.60;;;7.40;;
76228;SDS011;65021;53.174;18.160;2023-06-26T05:31:17;10.50;;;6.50;;
76228;SDS011;65021;53.174;18.160;2023-06-26T05:33:44;11.40;;;7.80;;
76228;SDS011;65021;53.174;18.160;2023-06-26T05:36:12;12.60;;;6.80;;
76228;SDS011;65021;53.174;18.160;2023-06-26T05:38:39;12.40;;;6.90;;
76228;SDS011;65021;53.174;18.160;2023-06-26T05:41:06;12.40;;;8.30;;
76228;SDS011;65021;53.174;18.160;2023-06-26T05:43:33;11.70;;;7.50;;
76228;SDS011;65021;53.174;18.160;2023-06-26T05:46:00;13.80;;;7.00;;
76228;SDS011;65021;53.174;18.160;2023-06-26T05:48:27;11.80;;;6.20;;
76228;SDS011;65021;53.174;18.160;2023-06-26T05:50:54;11.30;;;7.10;;
76228;SDS011;65021;53.174;18.160;2023-06-26T05:53:21;12.00;;;6.70;;
76228;SDS011;65021;53.174;18.160;2023-06-26T05:55:47;10.80;;;6.40;;
76228;SDS011;65021;53.174;18.160;2023-06-26T05:58:14;12.10;;;7.80;;
76228;SDS011;65021;53.174;18.160;2023-06-26T06:00:44;10.80;;;6.80;;
76228;SDS011;65021;53.174;18.160;2023-06-26T06:03:10;13.20;;;7.90;;
76228;SDS011;65021;53.174;18.160;2023-06-26T06:05:37;10.80;;;7.90;;
76228;SDS011;65021;53.174;18.160;2023-06-26T06:08:04;11.20;;;7.90;;
76228;SDS011;65021;53.174;18.160;2023-06-26T06:10:31;13.00;;;8.00;;
76228;SDS011;65021;53.174;18.160;2023-06-26T06:12:57;10.20;;;6.80;;
76228;SDS011;65021;53.174;18.160;2023-06-26T06:15:24;10.20;;;6.50;;
76228;SDS011;65021;53.174;18.160;2023-06-26T06:17:50;10.40;;;7.00;;
76228;SDS011;65021;53.174;18.160;2023-06-26T06:20:17;10.80;;;7.10;;
76228;SDS011;65021;53.174;18.160;2023-06-26T06:22:47;9.50;;;6.00;;
76228;SDS011;65021;53.174;18.160;2023-06-26T06:25:14;11.40;;;7.20;;
76228;SDS011;65021;53.174;18.160;2023-06-26T06:27:41;10.10;;;7.10;;
76228;SDS011;65021;53.174;18.160;2023-06-26T06:30:09;10.80;;;6.10;;
76228;SDS011;65021;53.174;18.160;2023-06-26T06:32:36;10.90;;;6.90;;
76228;SDS011;65021;53.174;18.160;2023-06-26T06:35:03;8.70;;;6.30;;
76228;SDS011;65021;53.174;18.160;2023-06-26T06:37:38;9.50;;;6.10;;
76228;SDS011;65021;53.174;18.160;2023-06-26T06:40:06;9.70;;;5.90;;
76228;SDS011;65021;53.174;18.160;2023-06-26T06:42:35;10.20;;;5.80;;
76228;SDS011;65021;53.174;18.160;2023-06-26T06:45:02;8.70;;;6.00;;
76228;SDS011;65021;53.174;18.160;2023-06-26T06:47:30;11.20;;;6.60;;
76228;SDS011;65021;53.174;18.160;2023-06-26T06:49:57;10.40;;;6.50;;
76228;SDS011;65021;53.174;18.160;2023-06-26T06:52:25;12.50;;;5.90;;
76228;SDS011;65021;53.174;18.160;2023-06-26T06:54:52;9.00;;;5.90;;
76228;SDS011;65021;53.174;18.160;2023-06-26T06:57:20;7.80;;;5.50;;
76228;SDS011;65021;53.174;18.160;2023-06-26T06:59:47;9.70;;;5.60;;
76228;SDS011;65021;53.174;18.160;2023-06-26T07:02:16;8.20;;;5.90;;
76228;SDS011;65021;53.174;18.160;2023-06-26T07:04:43;7.50;;;5.30;;
76228;SDS011;65021;53.174;18.160;2023-06-26T07:07:11;10.70;;;5.70;;
76228;SDS011;65021;53.174;18.160;2023-06-26T07:09:40;8.90;;;5.00;;
76228;SDS011;65021;53.174;18.160;2023-06-26T07:12:06;8.60;;;5.20;;
76228;SDS011;65021;53.174;18.160;2023-06-26T07:14:33;7.80;;;5.70;;
76228;SDS011;65021;53.174;18.160;2023-06-26T07:17:00;7.50;;;4.80;;
76228;SDS011;65021;53.174;18.160;2023-06-26T07:19:27;7.40;;;4.60;;
76228;SDS011;65021;53.174;18.160;2023-06-26T07:21:53;8.70;;;5.00;;
76228;SDS011;65021;53.174;18.160;2023-06-26T07:24:20;7.30;;;4.80;;
76228;SDS011;65021;53.174;18.160;2023-06-26T07:26:47;7.10;;;4.40;;
76228;SDS011;65021;53.174;18.160;2023-06-26T07:29:14;8.00;;;5.30;;
76228;SDS011;65021;53.174;18.160;2023-06-26T07:31:40;8.40;;;4.40;;
76228;SDS011;65021;53.174;18.160;2023-06-26T07:34:07;6.60;;;4.80;;
76228;SDS011;65021;53.174;18.160;2023-06-26T07:36:35;7.80;;;4.40;;
76228;SDS011;65021;53.174;18.160;2023-06-26T07:39:01;6.30;;;3.90;;
76228;SDS011;65021;53.174;18.160;2023-06-26T07:41:28;7.10;;;3.80;;
76228;SDS011;65021;53.174;18.160;2023-06-26T07:43:57;7.00;;;4.50;;
76228;SDS011;65021;53.174;18.160;2023-06-26T07:46:25;6.20;;;3.70;;
76228;SDS011;65021;53.174;18.160;2023-06-26T07:48:51;6.90;;;4.10;;
76228;SDS011;65021;53.174;18.160;2023-06-26T07:51:19;8.60;;;4.20;;
76228;SDS011;65021;53.174;18.160;2023-06-26T07:53:46;7.50;;;4.00;;
76228;SDS011;65021;53.174;18.160;2023-06-26T07:56:13;5.10;;;3.10;;
76228;SDS011;65021;53.174;18.160;2023-06-26T07:58:39;7.20;;;3.90;;
76228;SDS011;65021;53.174;18.160;2023-06-26T08:01:06;6.50;;;3.70;;
76228;SDS011;65021;53.174;18.160;2023-06-26T08:03:32;6.00;;;3.40;;
76228;SDS011;65021;53.174;18.160;2023-06-26T08:05:59;6.00;;;3.30;;
76228;SDS011;65021;53.174;18.160;2023-06-26T08:08:26;6.60;;;3.60;;
76228;SDS011;65021;53.174;18.160;2023-06-26T08:10:52;7.40;;;4.60;;
76228;SDS011;65021;53.174;18.160;2023-06-26T08:13:19;5.90;;;3.90;;
76228;SDS011;65021;53.174;18.160;2023-06-26T08:15:45;6.00;;;3.80;;
76228;SDS011;65021;53.174;18.160;2023-06-26T08:18:12;6.70;;;3.40;;
76228;SDS011;65021;53.174;18.160;2023-06-26T08:20:38;6.50;;;4.10;;
76228;SDS011;65021;53.174;18.160;2023-06-26T08:23:05;6.40;;;3.30;;
76228;SDS011;65021;53.174;18.160;2023-06-26T08:25:32;6.80;;;3.20;;
76228;SDS011;65021;53.174;18.160;2023-06-26T08:27:58;6.00;;;3.70;;
76228;SDS011;65021;53.174;18.160;2023-06-26T08:30:25;7.10;;;4.00;;
76228;SDS011;65021;53.174;18.160;2023-06-26T08:32:57;7.10;;;3.70;;
76228;SDS011;65021;53.174;18.160;2023-06-26T08:35:24;6.20;;;3.70;;
76228;SDS011;65021;53.174;18.160;2023-06-26T08:37:50;5.80;;;3.30;;
76228;SDS011;65021;53.174;18.160;2023-06-26T08:40:17;5.70;;;3.40;;
76228;SDS011;65021;53.174;18.160;2023-06-26T08:42:47;6.30;;;3.00;;
76228;SDS011;65021;53.174;18.160;2023-06-26T08:45:17;6.00;;;3.20;;
76228;SDS011;65021;53.174;18.160;2023-06-26T08:47:43;7.80;;;3.50;;
76228;SDS011;65021;53.174;18.160;2023-06-26T08:50:12;8.90;;;3.60;;
76228;SDS011;65021;53.174;18.160;2023-06-26T08:52:42;5.70;;;3.70;;
76228;SDS011;65021;53.174;18.160;2023-06-26T08:55:12;4.90;;;2.80;;
76228;SDS011;65021;53.174;18.160;2023-06-26T08:57:41;6.10;;;3.70;;
76228;SDS011;65021;53.174;18.160;2023-06-26T09:00:08;5.80;;;3.20;;
76228;SDS011;65021;53.174;18.160;2023-06-26T09:02:36;5.10;;;3.00;;
76228;SDS011;65021;53.174;18.160;2023-06-26T09:05:03;5.90;;;3.30;;
76228;SDS011;65021;53.174;18.160;2023-06-26T09:07:30;5.00;;;3.10;;
76228;SDS011;65021;53.174;18.160;2023-06-26T09:09:57;4.80;;;2.50;;
76228;SDS011;65021;53.174;18.160;2023-06-26T09:12:26;5.60;;;3.00;;
76228;SDS011;65021;53.174;18.160;2023-06-26T09:14:57;5.90;;;3.90;;
76228;SDS011;65021;53.174;18.160;2023-06-26T09:17:24;6.70;;;3.80;;
76228;SDS011;65021;53.174;18.160;2023-06-26T09:22:19;5.10;;;3.10;;
76228;SDS011;65021;53.174;18.160;2023-06-26T09:24:45;7.80;;;3.60;;
76228;SDS011;65021;53.174;18.160;2023-06-26T09:27:12;6.70;;;3.80;;
76228;SDS011;65021;53.174;18.160;2023-06-26T09:29:39;5.10;;;3.10;;
76228;SDS011;65021;53.174;18.160;2023-06-26T09:32:07;7.50;;;3.50;;
76228;SDS011;65021;53.174;18.160;2023-06-26T09:34:35;6.90;;;4.00;;
76228;SDS011;65021;53.174;18.160;2023-06-26T09:37:02;5.60;;;3.50;;
76228;SDS011;65021;53.174;18.160;2023-06-26T09:39:30;5.00;;;3.30;;
76228;SDS011;65021;53.174;18.160;2023-06-26T09:41:58;6.00;;;3.40;;
76228;SDS011;65021;53.174;18.160;2023-06-26T09:44:25;4.90;;;2.90;;
76228;SDS011;65021;53.174;18.160;2023-06-26T09:46:51;5.20;;;3.40;;
76228;SDS011;65021;53.174;18.160;2023-06-26T09:49:21;6.00;;;3.30;;
76228;SDS011;65021;53.174;18.160;2023-06-26T09:51:50;5.30;;;3.30;;
76228;SDS011;65021;53.174;18.160;2023-06-26T09:54:16;5.30;;;3.00;;
76228;SDS011;65021;53.174;18.160;2023-06-26T09:56:46;5.20;;;2.90;;
76228;SDS011;65021;53.174;18.160;2023-06-26T09:59:12;6.30;;;3.10;;
76228;SDS011;65021;53.174;18.160;2023-06-26T10:01:40;6.50;;;3.70;;
76228;SDS011;65021;53.174;18.160;2023-06-26T10:04:08;6.30;;;3.60;;
76228;SDS011;65021;53.174;18.160;2023-06-26T10:06:47;5.20;;;3.20;;
76228;SDS011;65021;53.174;18.160;2023-06-26T10:09:17;6.80;;;3.50;;
76228;SDS011;65021;53.174;18.160;2023-06-26T10:12:01;6.30;;;3.40;;
76228;SDS011;65021;53.174;18.160;2023-06-26T10:14:35;6.60;;;3.40;;
76228;SDS011;65021;53.174;18.160;2023-06-26T10:17:04;4.70;;;2.80;;
76228;SDS011;65021;53.174;18.160;2023-06-26T10:19:35;6.90;;;3.20;;
76228;SDS011;65021;53.174;18.160;2023-06-26T10:22:06;7.50;;;3.70;;
76228;SDS011;65021;53.174;18.160;2023-06-26T10:24:34;6.30;;;3.10;;
76228;SDS011;65021;53.174;18.160;2023-06-26T10:27:04;5.10;;;2.70;;
76228;SDS011;65021;53.174;18.160;2023-06-26T10:29:37;5.40;;;3.40;;
76228;SDS011;65021;53.174;18.160;2023-06-26T10:32:04;6.30;;;3.90;;
76228;SDS011;65021;53.174;18.160;2023-06-26T10:34:32;5.90;;;3.10;;
76228;SDS011;65021;53.174;18.160;2023-06-26T10:36:59;6.60;;;3.60;;
76228;SDS011;65021;53.174;18.160;2023-06-26T10:39:49;15.00;;;4.50;;
76228;SDS011;65021;53.174;18.160;2023-06-26T10:42:18;7.30;;;3.50;;
76228;SDS011;65021;53.174;18.160;2023-06-26T10:44:46;5.20;;;2.80;;
76228;SDS011;65021;53.174;18.160;2023-06-26T10:47:29;7.70;;;3.80;;
76228;SDS011;65021;53.174;18.160;2023-06-26T10:55:41;4.60;;;2.60;;
76228;SDS011;65021;53.174;18.160;2023-06-26T11:03:43;5.80;;;3.40;;
76228;SDS011;65021;53.174;18.160;2023-06-26T11:06:13;6.60;;;3.30;;
76228;SDS011;65021;53.174;18.160;2023-06-26T11:08:44;6.10;;;3.10;;
76228;SDS011;65021;53.174;18.160;2023-06-26T11:11:14;5.50;;;3.50;;
76228;SDS011;65021;53.174;18.160;2023-06-26T11:13:41;6.50;;;3.60;;
76228;SDS011;65021;53.174;18.160;2023-06-26T11:16:08;5.30;;;3.10;;
76228;SDS011;65021;53.174;18.160;2023-06-26T11:18:35;5.00;;;2.70;;
76228;SDS011;65021;53.174;18.160;2023-06-26T11:21:08;6.40;;;3.60;;
76228;SDS011;65021;53.174;18.160;2023-06-26T11:23:37;4.80;;;2.80;;
76228;SDS011;65021;53.174;18.160;2023-06-26T11:26:19;5.10;;;2.40;;
76228;SDS011;65021;53.174;18.160;2023-06-26T11:28:50;5.50;;;3.30;;
76228;SDS011;65021;53.174;18.160;2023-06-26T11:33:51;4.80;;;3.00;;
76228;SDS011;65021;53.174;18.160;2023-06-26T11:36:19;7.80;;;3.10;;
76228;SDS011;65021;53.174;18.160;2023-06-26T11:38:45;5.00;;;2.70;;
76228;SDS011;65021;53.174;18.160;2023-06-26T11:41:16;5.40;;;3.30;;
76228;SDS011;65021;53.174;18.160;2023-06-26T11:43:43;5.20;;;3.10;;
76228;SDS011;65021;53.174;18.160;2023-06-26T11:46:10;5.00;;;2.70;;
76228;SDS011;65021;53.174;18.160;2023-06-26T11:48:36;6.10;;;3.40;;
76228;SDS011;65021;53.174;18.160;2023-06-26T11:51:06;7.10;;;3.50;;
76228;SDS011;65021;53.174;18.160;2023-06-26T11:53:38;6.00;;;2.90;;
76228;SDS011;65021;53.174;18.160;2023-06-26T11:56:09;28.10;;;5.30;;
76228;SDS011;65021;53.174;18.160;2023-06-26T11:58:52;6.80;;;2.70;;
76228;SDS011;65021;53.174;18.160;2023-06-26T12:01:21;5.30;;;3.00;;
76228;SDS011;65021;53.174;18.160;2023-06-26T12:03:49;3.90;;;2.10;;
76228;SDS011;65021;53.174;18.160;2023-06-26T12:06:16;5.30;;;2.90;;
76228;SDS011;65021;53.174;18.160;2023-06-26T12:08:43;5.30;;;2.70;;
76228;SDS011;65021;53.174;18.160;2023-06-26T12:11:10;5.80;;;3.40;;
76228;SDS011;65021;53.174;18.160;2023-06-26T12:13:37;4.30;;;2.60;;
76228;SDS011;65021;53.174;18.160;2023-06-26T12:16:03;6.30;;;3.20;;
76228;SDS011;65021;53.174;18.160;2023-06-26T12:18:36;5.00;;;2.80;;
76228;SDS011;65021;53.174;18.160;2023-06-26T12:21:02;8.70;;;3.00;;
76228;SDS011;65021;53.174;18.160;2023-06-26T12:23:47;6.40;;;3.50;;
76228;SDS011;65021;53.174;18.160;2023-06-26T12:26:18;4.40;;;2.90;;
76228;SDS011;65021;53.174;18.160;2023-06-26T12:28:47;6.20;;;3.60;;
76228;SDS011;65021;53.174;18.160;2023-06-26T12:33:42;5.00;;;3.50;;
76228;SDS011;65021;53.174;18.160;2023-06-26T12:36:12;8.00;;;3.50;;
76228;SDS011;65021;53.174;18.160;2023-06-26T12:38:42;6.80;;;3.40;;
76228;SDS011;65021;53.174;18.160;2023-06-26T12:41:12;4.40;;;2.00;;
76228;SDS011;65021;53.174;18.160;2023-06-26T12:43:42;6.30;;;3.50;;
76228;SDS011;65021;53.174;18.160;2023-06-26T12:46:09;5.80;;;3.70;;
76228;SDS011;65021;53.174;18.160;2023-06-26T12:48:36;4.50;;;3.10;;
76228;SDS011;65021;53.174;18.160;2023-06-26T12:51:12;6.40;;;3.40;;
76228;SDS011;65021;53.174;18.160;2023-06-26T12:53:41;6.00;;;3.70;;
76228;SDS011;65021;53.174;18.160;2023-06-26T12:56:08;10.40;;;5.10;;
76228;SDS011;65021;53.174;18.160;2023-06-26T12:58:36;6.20;;;3.70;;
76228;SDS011;65021;53.174;18.160;2023-06-26T13:01:03;6.80;;;3.40;;
76228;SDS011;65021;53.174;18.160;2023-06-26T13:03:33;6.20;;;3.50;;
76228;SDS011;65021;53.174;18.160;2023-06-26T13:06:00;8.30;;;3.70;;
76228;SDS011;65021;53.174;18.160;2023-06-26T13:08:26;9.00;;;3.40;;
76228;SDS011;65021;53.174;18.160;2023-06-26T13:10:53;6.70;;;3.70;;
76228;SDS011;65021;53.174;18.160;2023-06-26T13:13:20;8.50;;;3.80;;
76228;SDS011;65021;53.174;18.160;2023-06-26T13:15:46;6.30;;;3.60;;
76228;SDS011;65021;53.174;18.160;2023-06-26T13:18:13;5.40;;;3.40;;
76228;SDS011;65021;53.174;18.160;2023-06-26T13:20:39;5.70;;;3.40;;
76228;SDS011;65021;53.174;18.160;2023-06-26T13:23:06;6.60;;;3.50;;
76228;SDS011;65021;53.174;18.160;2023-06-26T13:25:33;9.70;;;4.40;;
76228;SDS011;65021;53.174;18.160;2023-06-26T13:28:00;6.80;;;3.30;;
76228;SDS011;65021;53.174;18.160;2023-06-26T13:30:26;7.60;;;4.00;;
76228;SDS011;65021;53.174;18.160;2023-06-26T13:32:53;10.70;;;4.30;;
76228;SDS011;65021;53.174;18.160;2023-06-26T13:35:19;7.70;;;3.70;;
76228;SDS011;65021;53.174;18.160;2023-06-26T13:37:46;6.90;;;3.90;;
76228;SDS011;65021;53.174;18.160;2023-06-26T13:40:13;6.10;;;3.50;;
76228;SDS011;65021;53.174;18.160;2023-06-26T13:42:40;6.20;;;3.80;;
76228;SDS011;65021;53.174;18.160;2023-06-26T13:45:06;6.20;;;3.30;;
76228;SDS011;65021;53.174;18.160;2023-06-26T13:47:33;6.30;;;3.40;;
76228;SDS011;65021;53.174;18.160;2023-06-26T13:50:09;5.70;;;3.40;;
76228;SDS011;65021;53.174;18.160;2023-06-26T13:52:36;5.80;;;3.30;;
76228;SDS011;65021;53.174;18.160;2023-06-26T13:55:03;6.70;;;3.40;;
76228;SDS011;65021;53.174;18.160;2023-06-26T13:57:32;7.10;;;4.10;;
76228;SDS011;65021;53.174;18.160;2023-06-26T14:00:02;5.20;;;3.00;;
76228;SDS011;65021;53.174;18.160;2023-06-26T14:02:29;6.00;;;4.00;;
76228;SDS011;65021;53.174;18.160;2023-06-26T14:04:56;7.80;;;3.90;;
76228;SDS011;65021;53.174;18.160;2023-06-26T14:07:22;6.60;;;3.40;;
76228;SDS011;65021;53.174;18.160;2023-06-26T14:09:49;5.70;;;3.80;;
76228;SDS011;65021;53.174;18.160;2023-06-26T14:12:16;6.20;;;3.30;;
76228;SDS011;65021;53.174;18.160;2023-06-26T14:14:42;5.50;;;3.40;;
76228;SDS011;65021;53.174;18.160;2023-06-26T14:17:09;8.20;;;4.30;;
76228;SDS011;65021;53.174;18.160;2023-06-26T14:19:36;5.90;;;3.50;;
76228;SDS011;65021;53.174;18.160;2023-06-26T14:22:03;6.50;;;3.60;;
76228;SDS011;65021;53.174;18.160;2023-06-26T14:24:30;20.70;;;5.20;;
76228;SDS011;65021;53.174;18.160;2023-06-26T14:26:56;7.40;;;4.00;;
76228;SDS011;65021;53.174;18.160;2023-06-26T14:29:23;6.50;;;4.10;;
76228;SDS011;65021;53.174;18.160;2023-06-26T14:31:49;13.10;;;4.00;;
76228;SDS011;65021;53.174;18.160;2023-06-26T14:34:16;6.40;;;4.10;;
76228;SDS011;65021;53.174;18.160;2023-06-26T14:36:43;6.60;;;3.90;;
76228;SDS011;65021;53.174;18.160;2023-06-26T14:39:10;6.80;;;3.50;;
76228;SDS011;65021;53.174;18.160;2023-06-26T14:41:36;6.10;;;3.90;;
76228;SDS011;65021;53.174;18.160;2023-06-26T14:44:03;6.30;;;3.40;;
76228;SDS011;65021;53.174;18.160;2023-06-26T14:46:30;6.00;;;3.40;;
76228;SDS011;65021;53.174;18.160;2023-06-26T14:48:57;6.00;;;3.40;;
76228;SDS011;65021;53.174;18.160;2023-06-26T14:51:23;7.10;;;3.30;;
76228;SDS011;65021;53.174;18.160;2023-06-26T14:53:52;20.40;;;5.10;;
76228;SDS011;65021;53.174;18.160;2023-06-26T14:56:18;8.30;;;3.40;;
76228;SDS011;65021;53.174;18.160;2023-06-26T14:58:45;5.30;;;3.20;;
76228;SDS011;65021;53.174;18.160;2023-06-26T15:01:13;5.70;;;3.10;;
76228;SDS011;65021;53.174;18.160;2023-06-26T15:03:42;6.40;;;2.90;;
76228;SDS011;65021;53.174;18.160;2023-06-26T15:06:09;8.20;;;3.20;;
76228;SDS011;65021;53.174;18.160;2023-06-26T15:08:35;4.80;;;2.80;;
76228;SDS011;65021;53.174;18.160;2023-06-26T15:11:02;5.10;;;2.90;;